sensor_id;sensor_type;location;lat;lon;timestamp;P1;durP1;ratioP1;P2;durP2;ratioP2
64520;SDS011;50896;46.714;17.322;2024-03-02T08:27:58;47.63;;;28.90;;
64520;SDS011;50896;46.714;17.322;2024-03-02T08:30:25;51.50;;;28.52;;
64520;SDS011;50896;46.714;17.322;2024-03-02T08:32:52;51.25;;;29.17;;
64520;SDS011;50896;46.714;17.322;2024-03-02T08:35:18;47.58;;;28.95;;
64520;SDS011;50896;46.714;17.322;2024-03-02T08:37:45;47.67;;;28.23;;
64520;SDS011;50896;46.714;17.322;2024-03-02T08:40:12;46.45;;;25.65;;
64520;SDS011;50896;46.714;17.322;2024-03-02T08:42:43;37.30;;;24.27;;
64520;SDS011;50896;46.714;17.322;2024-03-02T08:45:10;39.53;;;24.15;;
64520;SDS011;50896;46.714;17.322;2024-03-02T08:47:37;42.90;;;24.52;;
64520;SDS011;50896;46.714;17.322;2024-03-02T08:50:04;39.63;;;24.23;;
64520;SDS011;50896;46.714;17.322;2024-03-02T08:52:32;42.30;;;24.80;;
64520;SDS011;50896;46.714;17.322;2024-03-02T08:54:59;38.05;;;24.38;;
64520;SDS011;50896;46.714;17.322;2024-03-02T08:57:26;37.90;;;23.45;;
64520;SDS011;50896;46.714;17.322;2024-03-02T08:59:53;37.25;;;23.83;;
64520;SDS011;50896;46.714;17.322;2024-03-02T09:02:20;36.65;;;23.08;;
64520;SDS011;50896;46.714;17.322;2024-03-02T09:04:47;38.58;;;23.42;;
64520;SDS011;50896;46.714;17.322;2024-03-02T09:07:14;36.28;;;23.70;;
64520;SDS011;50896;46.714;17.322;2024-03-02T09:09:40;39.78;;;24.35;;
64520;SDS011;50896;46.714;17.322;2024-03-02T09:12:07;35.60;;;22.35;;
64520;SDS011;50896;46.714;17.322;2024-03-02T09:14:34;38.72;;;23.90;;
64520;SDS011;50896;46.714;17.322;2024-03-02T09:17:03;33.45;;;22.75;;
64520;SDS011;50896;46.714;17.322;2024-03-02T09:19:30;37.42;;;23.75;;
64520;SDS011;50896;46.714;17.322;2024-03-02T09:21:57;39.03;;;23.77;;
64520;SDS011;50896;46.714;17.322;2024-03-02T09:24:25;36.38;;;22.90;;
64520;SDS011;50896;46.714;17.322;2024-03-02T09:26:52;39.13;;;24.20;;
64520;SDS011;50896;46.714;17.322;2024-03-02T09:29:19;40.38;;;24.33;;
64520;SDS011;50896;46.714;17.322;2024-03-02T09:31:47;37.40;;;22.30;;
64520;SDS011;50896;46.714;17.322;2024-03-02T09:34:14;40.60;;;24.35;;
64520;SDS011;50896;46.714;17.322;2024-03-02T09:36:42;39.10;;;22.75;;
64520;SDS011;50896;46.714;17.322;2024-03-02T09:39:10;36.33;;;24.00;;
64520;SDS011;50896;46.714;17.322;2024-03-02T09:41:37;40.08;;;24.17;;
64520;SDS011;50896;46.714;17.322;2024-03-02T09:44:06;37.60;;;23.92;;
64520;SDS011;50896;46.714;17.322;2024-03-02T09:46:33;40.80;;;23.50;;
64520;SDS011;50896;46.714;17.322;2024-03-02T09:49:02;37.07;;;23.33;;
64520;SDS011;50896;46.714;17.322;2024-03-02T09:51:30;38.95;;;23.50;;
64520;SDS011;50896;46.714;17.322;2024-03-02T09:53:57;40.90;;;25.38;;
64520;SDS011;50896;46.714;17.322;2024-03-02T09:56:44;42.97;;;24.92;;
64520;SDS011;50896;46.714;17.322;2024-03-02T09:59:11;39.65;;;24.83;;
64520;SDS011;50896;46.714;17.322;2024-03-02T10:01:39;40.03;;;25.65;;
64520;SDS011;50896;46.714;17.322;2024-03-02T10:04:06;41.30;;;25.48;;
64520;SDS011;50896;46.714;17.322;2024-03-02T10:06:34;42.80;;;25.80;;
64520;SDS011;50896;46.714;17.322;2024-03-02T10:09:00;43.17;;;24.92;;
64520;SDS011;50896;46.714;17.322;2024-03-02T10:11:34;43.33;;;25.70;;
64520;SDS011;50896;46.714;17.322;2024-03-02T10:16:35;40.60;;;26.02;;
64520;SDS011;50896;46.714;17.322;2024-03-02T10:19:15;44.60;;;26.48;;
64520;SDS011;50896;46.714;17.322;2024-03-02T10:21:50;44.22;;;25.45;;
64520;SDS011;50896;46.714;17.322;2024-03-02T10:24:18;41.22;;;25.85;;
64520;SDS011;50896;46.714;17.322;2024-03-02T10:26:47;43.22;;;26.38;;
64520;SDS011;50896;46.714;17.322;2024-03-02T10:29:18;40.30;;;25.13;;
64520;SDS011;50896;46.714;17.322;2024-03-02T10:31:45;44.63;;;26.63;;
64520;SDS011;50896;46.714;17.322;2024-03-02T10:34:12;40.33;;;25.90;;
64520;SDS011;50896;46.714;17.322;2024-03-02T10:36:41;38.50;;;25.98;;
64520;SDS011;50896;46.714;17.322;2024-03-02T10:39:08;41.53;;;25.00;;
64520;SDS011;50896;46.714;17.322;2024-03-02T10:41:37;40.78;;;26.15;;
64520;SDS011;50896;46.714;17.322;2024-03-02T10:44:06;46.13;;;25.65;;
64520;SDS011;50896;46.714;17.322;2024-03-02T10:46:34;41.83;;;25.80;;
64520;SDS011;50896;46.714;17.322;2024-03-02T10:49:05;44.13;;;26.63;;
64520;SDS011;50896;46.714;17.322;2024-03-02T10:51:34;40.30;;;26.20;;
64520;SDS011;50896;46.714;17.322;2024-03-02T10:54:03;45.13;;;26.77;;
64520;SDS011;50896;46.714;17.322;2024-03-02T10:56:31;42.05;;;26.65;;
64520;SDS011;50896;46.714;17.322;2024-03-02T11:04:31;40.97;;;25.35;;
64520;SDS011;50896;46.714;17.322;2024-03-02T11:07:05;40.80;;;25.77;;
64520;SDS011;50896;46.714;17.322;2024-03-02T11:09:34;39.83;;;25.60;;
64520;SDS011;50896;46.714;17.322;2024-03-02T11:12:03;43.88;;;27.23;;
64520;SDS011;50896;46.714;17.322;2024-03-02T11:14:36;41.83;;;25.88;;
64520;SDS011;50896;46.714;17.322;2024-03-02T11:17:07;42.90;;;26.17;;
64520;SDS011;50896;46.714;17.322;2024-03-02T11:19:34;46.13;;;27.63;;
64520;SDS011;50896;46.714;17.322;2024-03-02T11:22:03;39.50;;;26.08;;
64520;SDS011;50896;46.714;17.322;2024-03-02T11:24:31;39.95;;;26.83;;
64520;SDS011;50896;46.714;17.322;2024-03-02T11:27:07;44.25;;;27.70;;
64520;SDS011;50896;46.714;17.322;2024-03-02T11:32:05;45.53;;;29.80;;
64520;SDS011;50896;46.714;17.322;2024-03-02T11:37:13;43.42;;;27.02;;
64520;SDS011;50896;46.714;17.322;2024-03-02T11:39:40;44.33;;;27.85;;
64520;SDS011;50896;46.714;17.322;2024-03-02T11:42:09;46.20;;;29.23;;
64520;SDS011;50896;46.714;17.322;2024-03-02T11:44:38;47.05;;;29.73;;
64520;SDS011;50896;46.714;17.322;2024-03-02T11:47:05;44.53;;;29.63;;
64520;SDS011;50896;46.714;17.322;2024-03-02T11:52:08;48.83;;;30.10;;
64520;SDS011;50896;46.714;17.322;2024-03-02T11:54:38;46.60;;;29.65;;
64520;SDS011;50896;46.714;17.322;2024-03-02T11:57:06;46.33;;;27.90;;
64520;SDS011;50896;46.714;17.322;2024-03-02T11:59:33;48.15;;;28.25;;
64520;SDS011;50896;46.714;17.322;2024-03-02T12:02:00;49.55;;;29.73;;
64520;SDS011;50896;46.714;17.322;2024-03-02T12:04:29;48.90;;;30.27;;
64520;SDS011;50896;46.714;17.322;2024-03-02T12:07:01;48.20;;;29.40;;
64520;SDS011;50896;46.714;17.322;2024-03-02T12:09:29;48.08;;;29.63;;
64520;SDS011;50896;46.714;17.322;2024-03-02T12:14:31;46.10;;;29.08;;
64520;SDS011;50896;46.714;17.322;2024-03-02T12:16:58;44.47;;;27.95;;
64520;SDS011;50896;46.714;17.322;2024-03-02T12:19:26;42.67;;;27.20;;
64520;SDS011;50896;46.714;17.322;2024-03-02T12:21:53;41.92;;;27.98;;
64520;SDS011;50896;46.714;17.322;2024-03-02T12:24:21;41.92;;;28.42;;
64520;SDS011;50896;46.714;17.322;2024-03-02T12:26:51;49.15;;;29.58;;
64520;SDS011;50896;46.714;17.322;2024-03-02T12:29:19;46.13;;;29.35;;
64520;SDS011;50896;46.714;17.322;2024-03-02T12:31:48;47.70;;;29.83;;
64520;SDS011;50896;46.714;17.322;2024-03-02T12:34:15;48.90;;;30.50;;
64520;SDS011;50896;46.714;17.322;2024-03-02T12:36:45;46.97;;;29.15;;
64520;SDS011;50896;46.714;17.322;2024-03-02T12:39:19;43.75;;;27.65;;
64520;SDS011;50896;46.714;17.322;2024-03-02T12:41:47;48.22;;;29.77;;
64520;SDS011;50896;46.714;17.322;2024-03-02T12:44:17;48.22;;;29.77;;
64520;SDS011;50896;46.714;17.322;2024-03-02T12:46:45;46.80;;;27.67;;
64520;SDS011;50896;46.714;17.322;2024-03-02T12:49:13;42.50;;;26.85;;
64520;SDS011;50896;46.714;17.322;2024-03-02T12:51:44;45.88;;;27.20;;
64520;SDS011;50896;46.714;17.322;2024-03-02T12:54:18;44.67;;;27.50;;
64520;SDS011;50896;46.714;17.322;2024-03-02T12:56:49;41.92;;;27.73;;
64520;SDS011;50896;46.714;17.322;2024-03-02T12:59:20;49.58;;;28.50;;
64520;SDS011;50896;46.714;17.322;2024-03-02T13:01:50;47.45;;;28.40;;
64520;SDS011;50896;46.714;17.322;2024-03-02T13:04:22;45.70;;;29.23;;
64520;SDS011;50896;46.714;17.322;2024-03-02T13:06:52;49.33;;;29.15;;
64520;SDS011;50896;46.714;17.322;2024-03-02T13:09:20;46.33;;;29.88;;
64520;SDS011;50896;46.714;17.322;2024-03-02T13:11:47;49.25;;;29.52;;
64520;SDS011;50896;46.714;17.322;2024-03-02T13:14:14;51.50;;;29.23;;
64520;SDS011;50896;46.714;17.322;2024-03-02T13:16:41;53.50;;;29.95;;
64520;SDS011;50896;46.714;17.322;2024-03-02T13:19:13;50.20;;;30.38;;
64520;SDS011;50896;46.714;17.322;2024-03-02T13:21:40;53.42;;;31.02;;
64520;SDS011;50896;46.714;17.322;2024-03-02T13:24:07;51.55;;;31.30;;
64520;SDS011;50896;46.714;17.322;2024-03-02T13:26:34;46.20;;;30.27;;
64520;SDS011;50896;46.714;17.322;2024-03-02T13:29:02;50.00;;;30.92;;
64520;SDS011;50896;46.714;17.322;2024-03-02T13:31:29;50.83;;;30.42;;
64520;SDS011;50896;46.714;17.322;2024-03-02T13:33:55;52.40;;;30.45;;
64520;SDS011;50896;46.714;17.322;2024-03-02T13:36:22;49.83;;;30.25;;
64520;SDS011;50896;46.714;17.322;2024-03-02T13:38:50;52.42;;;31.58;;
64520;SDS011;50896;46.714;17.322;2024-03-02T13:41:17;50.90;;;31.33;;
64520;SDS011;50896;46.714;17.322;2024-03-02T13:43:44;50.50;;;32.17;;
64520;SDS011;50896;46.714;17.322;2024-03-02T13:46:11;57.70;;;33.05;;
64520;SDS011;50896;46.714;17.322;2024-03-02T13:48:39;52.53;;;32.33;;
64520;SDS011;50896;46.714;17.322;2024-03-02T13:51:06;53.78;;;32.70;;
64520;SDS011;50896;46.714;17.322;2024-03-02T13:53:32;52.65;;;32.20;;
64520;SDS011;50896;46.714;17.322;2024-03-02T13:56:02;56.35;;;34.38;;
64520;SDS011;50896;46.714;17.322;2024-03-02T13:58:29;54.35;;;34.08;;
64520;SDS011;50896;46.714;17.322;2024-03-02T14:00:56;57.50;;;34.55;;
64520;SDS011;50896;46.714;17.322;2024-03-02T14:03:23;55.63;;;33.67;;
64520;SDS011;50896;46.714;17.322;2024-03-02T14:05:52;56.00;;;35.50;;
64520;SDS011;50896;46.714;17.322;2024-03-02T14:08:20;56.28;;;34.03;;
64520;SDS011;50896;46.714;17.322;2024-03-02T14:10:46;57.38;;;34.75;;
64520;SDS011;50896;46.714;17.322;2024-03-02T14:13:13;55.63;;;35.08;;
64520;SDS011;50896;46.714;17.322;2024-03-02T14:15:41;59.65;;;34.28;;
64520;SDS011;50896;46.714;17.322;2024-03-02T14:18:08;59.53;;;36.97;;
64520;SDS011;50896;46.714;17.322;2024-03-02T14:20:37;65.18;;;37.80;;
64520;SDS011;50896;46.714;17.322;2024-03-02T14:23:06;60.65;;;36.85;;
64520;SDS011;50896;46.714;17.322;2024-03-02T14:25:33;59.28;;;37.20;;
64520;SDS011;50896;46.714;17.322;2024-03-02T14:28:00;60.50;;;37.22;;
64520;SDS011;50896;46.714;17.322;2024-03-02T14:30:47;63.28;;;37.50;;
64520;SDS011;50896;46.714;17.322;2024-03-02T14:33:14;57.30;;;36.20;;
64520;SDS011;50896;46.714;17.322;2024-03-02T14:35:41;65.05;;;37.97;;
64520;SDS011;50896;46.714;17.322;2024-03-02T14:38:08;66.65;;;38.63;;
64520;SDS011;50896;46.714;17.322;2024-03-02T14:40:35;60.65;;;38.00;;
64520;SDS011;50896;46.714;17.322;2024-03-02T14:43:02;63.28;;;37.80;;
64520;SDS011;50896;46.714;17.322;2024-03-02T14:45:29;60.67;;;38.17;;
64520;SDS011;50896;46.714;17.322;2024-03-02T14:47:56;61.70;;;37.20;;
64520;SDS011;50896;46.714;17.322;2024-03-02T14:50:27;59.63;;;35.15;;
64520;SDS011;50896;46.714;17.322;2024-03-02T14:52:54;60.80;;;36.17;;
64520;SDS011;50896;46.714;17.322;2024-03-02T14:55:24;59.90;;;36.92;;
64520;SDS011;50896;46.714;17.322;2024-03-02T14:57:50;59.53;;;36.50;;
64520;SDS011;50896;46.714;17.322;2024-03-02T15:00:17;62.03;;;37.78;;
64520;SDS011;50896;46.714;17.322;2024-03-02T15:02:45;61.20;;;37.08;;
64520;SDS011;50896;46.714;17.322;2024-03-02T15:05:11;59.65;;;37.38;;
64520;SDS011;50896;46.714;17.322;2024-03-02T15:07:38;59.78;;;36.83;;
64520;SDS011;50896;46.714;17.322;2024-03-02T15:10:05;59.85;;;37.08;;
64520;SDS011;50896;46.714;17.322;2024-03-02T15:12:33;62.60;;;37.20;;
64520;SDS011;50896;46.714;17.322;2024-03-02T15:15:00;68.20;;;38.22;;
64520;SDS011;50896;46.714;17.322;2024-03-02T15:17:26;58.58;;;35.08;;
64520;SDS011;50896;46.714;17.322;2024-03-02T15:19:53;61.60;;;37.45;;
64520;SDS011;50896;46.714;17.322;2024-03-02T15:22:20;61.30;;;37.60;;
64520;SDS011;50896;46.714;17.322;2024-03-02T15:24:47;64.38;;;37.97;;
64520;SDS011;50896;46.714;17.322;2024-03-02T15:27:14;63.50;;;37.53;;
64520;SDS011;50896;46.714;17.322;2024-03-02T15:29:41;65.82;;;38.53;;
64520;SDS011;50896;46.714;17.322;2024-03-02T15:32:08;64.82;;;37.80;;
64520;SDS011;50896;46.714;17.322;2024-03-02T15:34:35;61.83;;;38.90;;
64520;SDS011;50896;46.714;17.322;2024-03-02T15:37:02;59.63;;;37.78;;
64520;SDS011;50896;46.714;17.322;2024-03-02T15:39:30;59.05;;;36.78;;
64520;SDS011;50896;46.714;17.322;2024-03-02T15:41:57;63.33;;;38.45;;
64520;SDS011;50896;46.714;17.322;2024-03-02T15:44:24;65.15;;;38.90;;
64520;SDS011;50896;46.714;17.322;2024-03-02T15:46:51;63.85;;;39.05;;
64520;SDS011;50896;46.714;17.322;2024-03-02T15:49:18;62.30;;;37.90;;
64520;SDS011;50896;46.714;17.322;2024-03-02T15:51:47;64.33;;;38.37;;
64520;SDS011;50896;46.714;17.322;2024-03-02T15:54:14;65.18;;;37.30;;
64520;SDS011;50896;46.714;17.322;2024-03-02T15:56:40;62.50;;;38.72;;
64520;SDS011;50896;46.714;17.322;2024-03-02T15:59:08;64.22;;;39.83;;
64520;SDS011;50896;46.714;17.322;2024-03-02T16:01:35;69.10;;;39.75;;
64520;SDS011;50896;46.714;17.322;2024-03-02T16:04:02;59.08;;;37.72;;
64520;SDS011;50896;46.714;17.322;2024-03-02T16:06:29;61.60;;;38.63;;
64520;SDS011;50896;46.714;17.322;2024-03-02T16:08:56;67.97;;;41.75;;
64520;SDS011;50896;46.714;17.322;2024-03-02T16:11:26;63.92;;;38.70;;
64520;SDS011;50896;46.714;17.322;2024-03-02T16:13:53;64.78;;;40.08;;
64520;SDS011;50896;46.714;17.322;2024-03-02T16:16:22;63.67;;;40.63;;
64520;SDS011;50896;46.714;17.322;2024-03-02T16:18:48;67.88;;;41.65;;
64520;SDS011;50896;46.714;17.322;2024-03-02T16:21:15;64.22;;;40.00;;
64520;SDS011;50896;46.714;17.322;2024-03-02T16:23:42;64.63;;;40.83;;
64520;SDS011;50896;46.714;17.322;2024-03-02T16:26:09;70.75;;;41.50;;
64520;SDS011;50896;46.714;17.322;2024-03-02T16:28:36;62.42;;;39.72;;
64520;SDS011;50896;46.714;17.322;2024-03-02T16:31:03;70.63;;;42.50;;
64520;SDS011;50896;46.714;17.322;2024-03-02T16:33:30;67.55;;;41.80;;
64520;SDS011;50896;46.714;17.322;2024-03-02T16:35:57;67.88;;;42.25;;
64520;SDS011;50896;46.714;17.322;2024-03-02T16:38:24;67.80;;;41.63;;
64520;SDS011;50896;46.714;17.322;2024-03-02T16:40:51;71.35;;;42.72;;
64520;SDS011;50896;46.714;17.322;2024-03-02T16:43:19;75.18;;;44.97;;
64520;SDS011;50896;46.714;17.322;2024-03-02T16:45:46;72.07;;;45.30;;
64520;SDS011;50896;46.714;17.322;2024-03-02T16:48:13;74.45;;;45.42;;
64520;SDS011;50896;46.714;17.322;2024-03-02T16:50:40;71.20;;;44.38;;
64520;SDS011;50896;46.714;17.322;2024-03-02T16:53:07;72.50;;;44.08;;
64520;SDS011;50896;46.714;17.322;2024-03-02T16:55:33;71.72;;;44.30;;
64520;SDS011;50896;46.714;17.322;2024-03-02T16:58:01;74.28;;;45.05;;
64520;SDS011;50896;46.714;17.322;2024-03-02T17:00:27;74.28;;;46.90;;
64520;SDS011;50896;46.714;17.322;2024-03-02T17:02:54;75.65;;;44.40;;
64520;SDS011;50896;46.714;17.322;2024-03-02T17:05:21;78.25;;;46.55;;
64520;SDS011;50896;46.714;17.322;2024-03-02T17:07:48;74.65;;;45.10;;
64520;SDS011;50896;46.714;17.322;2024-03-02T17:10:15;76.45;;;46.05;;
64520;SDS011;50896;46.714;17.322;2024-03-02T17:12:42;77.63;;;45.90;;
64520;SDS011;50896;46.714;17.322;2024-03-02T17:15:09;81.32;;;47.45;;
64520;SDS011;50896;46.714;17.322;2024-03-02T17:17:36;80.05;;;47.92;;
64520;SDS011;50896;46.714;17.322;2024-03-02T17:20:04;76.60;;;46.10;;
64520;SDS011;50896;46.714;17.322;2024-03-02T17:22:35;84.18;;;48.47;;
64520;SDS011;50896;46.714;17.322;2024-03-02T17:25:02;80.63;;;47.08;;
64520;SDS011;50896;46.714;17.322;2024-03-02T17:27:29;89.03;;;50.25;;
64520;SDS011;50896;46.714;17.322;2024-03-02T17:29:57;85.25;;;49.03;;
64520;SDS011;50896;46.714;17.322;2024-03-02T17:32:24;82.35;;;48.25;;
64520;SDS011;50896;46.714;17.322;2024-03-02T17:34:51;83.30;;;48.60;;
64520;SDS011;50896;46.714;17.322;2024-03-02T17:37:18;83.43;;;49.22;;
64520;SDS011;50896;46.714;17.322;2024-03-02T17:39:45;85.75;;;50.30;;
64520;SDS011;50896;46.714;17.322;2024-03-02T17:42:13;83.68;;;49.20;;
64520;SDS011;50896;46.714;17.322;2024-03-02T17:44:40;90.93;;;50.33;;
64520;SDS011;50896;46.714;17.322;2024-03-02T17:47:07;94.63;;;51.33;;
64520;SDS011;50896;46.714;17.322;2024-03-02T17:49:33;89.85;;;50.83;;
64520;SDS011;50896;46.714;17.322;2024-03-02T17:52:00;92.03;;;51.58;;
64520;SDS011;50896;46.714;17.322;2024-03-02T17:54:27;88.05;;;50.20;;
64520;SDS011;50896;46.714;17.322;2024-03-02T17:56:54;92.70;;;51.30;;
64520;SDS011;50896;46.714;17.322;2024-03-02T17:59:21;90.28;;;51.80;;
64520;SDS011;50896;46.714;17.322;2024-03-02T18:01:48;91.80;;;51.08;;
64520;SDS011;50896;46.714;17.322;2024-03-02T18:04:15;89.05;;;49.75;;
64520;SDS011;50896;46.714;17.322;2024-03-02T18:06:42;94.70;;;51.92;;
64520;SDS011;50896;46.714;17.322;2024-03-02T18:09:09;100.65;;;51.90;;
64520;SDS011;50896;46.714;17.322;2024-03-02T18:11:36;89.63;;;51.10;;
64520;SDS011;50896;46.714;17.322;2024-03-02T18:14:02;94.13;;;51.38;;
64520;SDS011;50896;46.714;17.322;2024-03-02T18:16:29;92.88;;;50.70;;
64520;SDS011;50896;46.714;17.322;2024-03-02T18:18:56;88.28;;;49.55;;
64520;SDS011;50896;46.714;17.322;2024-03-02T18:21:23;95.18;;;52.58;;
64520;SDS011;50896;46.714;17.322;2024-03-02T18:23:50;94.80;;;50.38;;
64520;SDS011;50896;46.714;17.322;2024-03-02T18:26:17;92.68;;;51.08;;
64520;SDS011;50896;46.714;17.322;2024-03-02T18:28:47;92.35;;;50.53;;
64520;SDS011;50896;46.714;17.322;2024-03-02T18:31:14;91.47;;;50.03;;
64520;SDS011;50896;46.714;17.322;2024-03-02T18:33:45;92.85;;;50.50;;
64520;SDS011;50896;46.714;17.322;2024-03-02T18:36:12;89.75;;;50.22;;
64520;SDS011;50896;46.714;17.322;2024-03-02T18:38:39;94.00;;;50.17;;
64520;SDS011;50896;46.714;17.322;2024-03-02T18:41:05;87.57;;;49.58;;
64520;SDS011;50896;46.714;17.322;2024-03-02T18:43:32;96.35;;;52.63;;
64520;SDS011;50896;46.714;17.322;2024-03-02T18:45:59;95.60;;;50.65;;
64520;SDS011;50896;46.714;17.322;2024-03-02T18:48:26;97.68;;;50.58;;
64520;SDS011;50896;46.714;17.322;2024-03-02T18:50:53;84.07;;;48.28;;
64520;SDS011;50896;46.714;17.322;2024-03-02T18:53:20;86.80;;;49.80;;
64520;SDS011;50896;46.714;17.322;2024-03-02T18:55:47;87.03;;;50.60;;
64520;SDS011;50896;46.714;17.322;2024-03-02T18:58:16;92.22;;;51.22;;
64520;SDS011;50896;46.714;17.322;2024-03-02T19:00:43;87.47;;;49.20;;
64520;SDS011;50896;46.714;17.322;2024-03-02T19:03:10;92.40;;;50.50;;
64520;SDS011;50896;46.714;17.322;2024-03-02T19:05:37;92.38;;;49.75;;
64520;SDS011;50896;46.714;17.322;2024-03-02T19:08:04;93.80;;;50.47;;
64520;SDS011;50896;46.714;17.322;2024-03-02T19:10:31;96.40;;;51.15;;
64520;SDS011;50896;46.714;17.322;2024-03-02T19:12:58;88.20;;;49.08;;
64520;SDS011;50896;46.714;17.322;2024-03-02T19:15:25;89.68;;;49.33;;
64520;SDS011;50896;46.714;17.322;2024-03-02T19:17:51;91.95;;;51.67;;
64520;SDS011;50896;46.714;17.322;2024-03-02T19:20:19;88.47;;;49.88;;
64520;SDS011;50896;46.714;17.322;2024-03-02T19:22:46;91.45;;;49.70;;
64520;SDS011;50896;46.714;17.322;2024-03-02T19:25:15;92.70;;;50.97;;
64520;SDS011;50896;46.714;17.322;2024-03-02T19:27:42;94.85;;;51.45;;
64520;SDS011;50896;46.714;17.322;2024-03-02T19:30:09;94.18;;;50.70;;
64520;SDS011;50896;46.714;17.322;2024-03-02T19:32:36;86.95;;;50.25;;
64520;SDS011;50896;46.714;17.322;2024-03-02T19:35:03;87.65;;;49.35;;
64520;SDS011;50896;46.714;17.322;2024-03-02T19:37:31;85.13;;;48.55;;
64520;SDS011;50896;46.714;17.322;2024-03-02T19:39:58;91.50;;;50.97;;
64520;SDS011;50896;46.714;17.322;2024-03-02T19:42:24;93.13;;;50.10;;
64520;SDS011;50896;46.714;17.322;2024-03-02T19:44:51;92.75;;;51.67;;
64520;SDS011;50896;46.714;17.322;2024-03-02T19:47:18;88.07;;;48.80;;
64520;SDS011;50896;46.714;17.322;2024-03-02T19:49:46;90.00;;;49.15;;
64520;SDS011;50896;46.714;17.322;2024-03-02T19:52:13;94.57;;;49.97;;
64520;SDS011;50896;46.714;17.322;2024-03-02T19:54:40;84.65;;;49.47;;
64520;SDS011;50896;46.714;17.322;2024-03-02T19:57:07;86.43;;;47.72;;
64520;SDS011;50896;46.714;17.322;2024-03-02T19:59:34;85.43;;;48.67;;
64520;SDS011;50896;46.714;17.322;2024-03-02T20:02:00;88.70;;;48.40;;
64520;SDS011;50896;46.714;17.322;2024-03-02T20:04:28;90.75;;;49.88;;
64520;SDS011;50896;46.714;17.322;2024-03-02T20:06:55;88.68;;;50.30;;
64520;SDS011;50896;46.714;17.322;2024-03-02T20:09:21;91.22;;;50.20;;
64520;SDS011;50896;46.714;17.322;2024-03-02T20:11:49;88.20;;;48.00;;
64520;SDS011;50896;46.714;17.322;2024-03-02T20:14:15;91.68;;;50.00;;
64520;SDS011;50896;46.714;17.322;2024-03-02T20:16:44;91.57;;;50.38;;
64520;SDS011;50896;46.714;17.322;2024-03-02T20:19:11;92.17;;;51.10;;
64520;SDS011;50896;46.714;17.322;2024-03-02T20:21:45;92.65;;;50.97;;
64520;SDS011;50896;46.714;17.322;2024-03-02T20:24:12;82.68;;;47.83;;
64520;SDS011;50896;46.714;17.322;2024-03-02T20:26:39;87.05;;;48.58;;
64520;SDS011;50896;46.714;17.322;2024-03-02T20:29:06;88.07;;;49.95;;
64520;SDS011;50896;46.714;17.322;2024-03-02T20:31:32;90.03;;;50.08;;
64520;SDS011;50896;46.714;17.322;2024-03-02T20:34:01;86.63;;;49.33;;
64520;SDS011;50896;46.714;17.322;2024-03-02T20:36:28;90.53;;;48.88;;
64520;SDS011;50896;46.714;17.322;2024-03-02T20:38:55;90.63;;;49.33;;
64520;SDS011;50896;46.714;17.322;2024-03-02T20:41:22;81.82;;;48.03;;
64520;SDS011;50896;46.714;17.322;2024-03-02T20:43:49;87.35;;;48.95;;
64520;SDS011;50896;46.714;17.322;2024-03-02T20:46:17;85.82;;;48.80;;
64520;SDS011;50896;46.714;17.322;2024-03-02T20:48:43;82.68;;;46.97;;
64520;SDS011;50896;46.714;17.322;2024-03-02T20:51:12;81.95;;;46.40;;
64520;SDS011;50896;46.714;17.322;2024-03-02T20:53:39;81.28;;;47.35;;
64520;SDS011;50896;46.714;17.322;2024-03-02T20:56:06;85.90;;;48.97;;
64520;SDS011;50896;46.714;17.322;2024-03-02T20:58:33;84.68;;;49.08;;
64520;SDS011;50896;46.714;17.322;2024-03-02T21:01:00;85.57;;;48.42;;
64520;SDS011;50896;46.714;17.322;2024-03-02T21:03:27;80.50;;;45.42;;
64520;SDS011;50896;46.714;17.322;2024-03-02T21:05:54;91.85;;;49.17;;
64520;SDS011;50896;46.714;17.322;2024-03-02T21:08:21;83.93;;;47.15;;
64520;SDS011;50896;46.714;17.322;2024-03-02T21:10:47;78.00;;;45.72;;
64520;SDS011;50896;46.714;17.322;2024-03-02T21:13:15;82.07;;;45.15;;
64520;SDS011;50896;46.714;17.322;2024-03-02T21:15:43;93.97;;;49.97;;
64520;SDS011;50896;46.714;17.322;2024-03-02T21:18:10;85.72;;;47.33;;
64520;SDS011;50896;46.714;17.322;2024-03-02T21:20:37;82.80;;;48.10;;
64520;SDS011;50896;46.714;17.322;2024-03-02T21:23:04;81.47;;;45.40;;
64520;SDS011;50896;46.714;17.322;2024-03-02T21:25:30;84.68;;;46.50;;
64520;SDS011;50896;46.714;17.322;2024-03-02T21:28:01;84.25;;;47.75;;
64520;SDS011;50896;46.714;17.322;2024-03-02T21:30:28;79.85;;;46.25;;
64520;SDS011;50896;46.714;17.322;2024-03-02T21:33:01;83.05;;;45.50;;
64520;SDS011;50896;46.714;17.322;2024-03-02T21:35:30;80.25;;;44.50;;
64520;SDS011;50896;46.714;17.322;2024-03-02T21:37:58;81.60;;;46.05;;
64520;SDS011;50896;46.714;17.322;2024-03-02T21:40:29;76.38;;;45.58;;
64520;SDS011;50896;46.714;17.322;2024-03-02T21:42:57;86.88;;;46.42;;
64520;SDS011;50896;46.714;17.322;2024-03-02T21:45:25;82.22;;;45.72;;
64520;SDS011;50896;46.714;17.322;2024-03-02T21:47:52;77.10;;;44.53;;
64520;SDS011;50896;46.714;17.322;2024-03-02T21:50:19;79.47;;;46.05;;
64520;SDS011;50896;46.714;17.322;2024-03-02T21:52:46;80.20;;;45.72;;
64520;SDS011;50896;46.714;17.322;2024-03-02T21:55:13;78.30;;;44.17;;
64520;SDS011;50896;46.714;17.322;2024-03-02T21:57:40;72.25;;;44.00;;
64520;SDS011;50896;46.714;17.322;2024-03-02T22:00:07;73.95;;;43.17;;
64520;SDS011;50896;46.714;17.322;2024-03-02T22:02:40;70.32;;;42.30;;
64520;SDS011;50896;46.714;17.322;2024-03-02T22:05:07;72.72;;;43.42;;
64520;SDS011;50896;46.714;17.322;2024-03-02T22:07:34;69.78;;;41.28;;
64520;SDS011;50896;46.714;17.322;2024-03-02T22:10:01;69.05;;;42.08;;
64520;SDS011;50896;46.714;17.322;2024-03-02T22:12:28;66.55;;;40.83;;
64520;SDS011;50896;46.714;17.322;2024-03-02T22:14:55;67.05;;;40.15;;
64520;SDS011;50896;46.714;17.322;2024-03-02T22:17:22;62.58;;;38.03;;
64520;SDS011;50896;46.714;17.322;2024-03-02T22:19:49;64.15;;;38.88;;
64520;SDS011;50896;46.714;17.322;2024-03-02T22:22:16;64.55;;;40.17;;
64520;SDS011;50896;46.714;17.322;2024-03-02T22:24:43;61.75;;;38.80;;
64520;SDS011;50896;46.714;17.322;2024-03-02T22:27:09;64.22;;;38.72;;
64520;SDS011;50896;46.714;17.322;2024-03-02T22:29:36;65.65;;;38.13;;
64520;SDS011;50896;46.714;17.322;2024-03-02T22:32:05;70.43;;;40.97;;
64520;SDS011;50896;46.714;17.322;2024-03-02T22:34:32;62.63;;;37.50;;
64520;SDS011;50896;46.714;17.322;2024-03-02T22:36:59;58.42;;;36.58;;
64520;SDS011;50896;46.714;17.322;2024-03-02T22:39:26;60.90;;;38.05;;
64520;SDS011;50896;46.714;17.322;2024-03-02T22:41:53;60.13;;;38.53;;
64520;SDS011;50896;46.714;17.322;2024-03-02T22:44:21;58.17;;;36.45;;
64520;SDS011;50896;46.714;17.322;2024-03-02T22:46:48;58.30;;;36.30;;
64520;SDS011;50896;46.714;17.322;2024-03-02T22:49:15;55.45;;;35.45;;
64520;SDS011;50896;46.714;17.322;2024-03-02T22:51:42;54.28;;;34.95;;
64520;SDS011;50896;46.714;17.322;2024-03-02T22:54:09;53.80;;;35.08;;
64520;SDS011;50896;46.714;17.322;2024-03-02T22:56:35;53.53;;;34.70;;